createdAt,value
2019-06-01T00:04:36.390Z,73.94
2019-06-01T00:09:39.030Z,73.28
2019-06-01T00:14:41.679Z,73.67
2019-06-01T00:19:44.021Z,73.63
2019-06-01T00:24:45.944Z,73.11
2019-06-01T00:29:49.489Z,73.18
2019-06-01T00:34:51.856Z,73.35
2019-06-01T00:39:53.994Z,73.04
2019-06-01T00:44:55.907Z,73.05
2019-06-01T00:49:57.797Z,73.65
2019-06-01T00:54:59.684Z,73.99
2019-06-01T01:00:01.587Z,74.27
2019-06-01T01:05:18.758Z,74.52
2019-06-01T01:10:20.598Z,74.34
2019-06-01T01:15:22.453Z,73.95
2019-06-01T01:20:24.475Z,73.89
2019-06-01T01:25:26.308Z,74.67
2019-06-01T01:30:29.230Z,75.00
2019-06-01T01:35:31.103Z,74.34
2019-06-01T01:40:32.943Z,74.23
2019-06-01T01:45:34.778Z,74.13
2019-06-01T01:50:36.729Z,74.04
2019-06-01T01:55:38.535Z,73.69
2019-06-01T02:00:43.459Z,73.38
2019-06-01T02:05:45.496Z,73.27
2019-06-01T02:10:47.442Z,73.58
2019-06-01T02:15:49.256Z,73.75
2019-06-01T02:20:52.255Z,74.27
2019-06-01T02:25:54.862Z,72.98
2019-06-01T02:30:57.910Z,73.34
2019-06-01T02:36:00.700Z,73.78
2019-06-01T02:41:05.506Z,73.11
2019-06-01T02:46:07.707Z,74.43
2019-06-01T02:51:10.070Z,75.84
2019-06-01T02:56:11.956Z,75.48
2019-06-01T03:01:34.805Z,75.18
2019-06-01T03:06:39.844Z,74.88
2019-06-01T03:11:42.877Z,74.85
2019-06-01T03:16:48.305Z,75.46
2019-06-01T03:21:52.547Z,75.06
2019-06-01T03:26:54.910Z,74.86
2019-06-01T03:32:17.653Z,74.61
2019-06-01T03:37:01.176Z,76.95
2019-06-01T03:42:03.406Z,74.30
2019-06-01T03:47:05.708Z,76.76
2019-06-01T03:52:08.821Z,76.25
2019-06-01T03:57:11.263Z,75.96
2019-06-01T04:02:13.541Z,75.67
2019-06-01T04:07:15.393Z,75.73
2019-06-01T04:12:17.213Z,74.96
2019-06-01T04:17:19.076Z,75.48
2019-06-01T04:22:20.877Z,75.09
2019-06-01T04:27:22.811Z,74.92
2019-06-01T04:32:24.679Z,74.52
2019-06-01T04:37:26.556Z,74.61
2019-06-01T04:42:29.889Z,74.34
2019-06-01T04:47:31.695Z,73.16
2019-06-01T04:52:33.529Z,74.27
2019-06-01T04:57:36.622Z,74.40
2019-06-01T05:02:38.655Z,71.75
2019-06-01T05:07:40.505Z,71.77
2019-06-01T05:12:42.379Z,72.24
2019-06-01T05:17:44.317Z,73.20
2019-06-01T05:22:46.120Z,71.48
2019-06-01T05:27:48.052Z,71.37
2019-06-01T05:32:49.901Z,70.92
2019-06-01T05:37:51.782Z,69.92
2019-06-01T05:42:53.672Z,70.87
2019-06-01T05:47:55.616Z,70.69
2019-06-01T05:52:57.462Z,70.45
2019-06-01T05:57:59.392Z,70.47
2019-06-01T06:03:01.291Z,70.41
2019-06-01T06:08:03.327Z,67.56
2019-06-01T06:13:05.251Z,68.32
2019-06-01T06:18:07.086Z,68.20
2019-06-01T06:23:08.981Z,68.93
2019-06-01T06:28:10.783Z,66.54
2019-06-01T06:33:13.203Z,63.72
2019-06-01T06:38:15.695Z,63.91
2019-06-01T06:43:24.446Z,63.90
2019-06-01T06:48:23.213Z,62.39
2019-06-01T06:53:34.582Z,61.15
2019-06-01T06:58:29.184Z,60.61
2019-06-01T07:03:31.153Z,62.12
2019-06-01T07:08:32.995Z,62.21
2019-06-01T07:13:35.291Z,60.83
2019-06-01T07:18:38.863Z,59.41
2019-06-01T07:23:40.877Z,57.23
2019-06-01T07:28:44.668Z,56.19
2019-06-01T07:33:46.654Z,56.40
2019-06-01T07:44:10.150Z,50.80
2019-06-01T07:49:12.397Z,54.84
2019-06-01T07:54:14.304Z,51.36
2019-06-01T07:59:16.166Z,57.62
2019-06-01T08:04:18.137Z,49.86
2019-06-01T08:09:22.011Z,49.76
2019-06-01T08:14:24.495Z,48.55
2019-06-01T08:19:30.128Z,44.43
2019-06-01T08:24:32.459Z,48.81
2019-06-01T08:29:34.576Z,47.10
2019-06-01T08:34:36.481Z,44.40
2019-06-01T08:39:38.296Z,46.64
2019-06-01T08:44:41.271Z,42.90
2019-06-01T08:49:43.211Z,44.67
2019-06-01T08:54:47.506Z,44.25
2019-06-01T08:59:51.656Z,45.70
2019-06-01T09:04:53.523Z,43.82
2019-06-01T09:09:55.567Z,43.62
2019-06-01T09:14:57.500Z,47.07
2019-06-01T09:19:59.326Z,45.91
2019-06-01T09:25:01.338Z,48.42
2019-06-01T09:30:05.766Z,48.22
2019-06-01T09:35:08.137Z,50.06
2019-06-01T09:40:11.074Z,49.79
2019-06-01T09:45:13.799Z,47.61
2019-06-01T09:50:15.535Z,47.61
2019-06-01T09:55:17.701Z,51.12
2019-06-01T10:00:19.916Z,43.49
2019-06-01T10:05:21.950Z,46.17
2019-06-01T10:10:23.752Z,46.22
2019-06-01T10:15:25.825Z,45.80
2019-06-01T10:20:27.640Z,43.99
2019-06-01T10:25:30.369Z,40.29
2019-06-01T10:30:33.810Z,40.93
2019-06-01T10:35:36.953Z,42.03
2019-06-01T10:40:39.869Z,40.12
2019-06-01T10:45:43.461Z,41.10
2019-06-01T10:50:45.580Z,41.42
2019-06-01T10:55:47.534Z,39.90
2019-06-01T11:00:51.269Z,37.40
2019-06-01T11:05:54.134Z,37.11
2019-06-01T11:10:56.117Z,35.92
2019-06-01T11:15:59.609Z,37.83
2019-06-01T11:21:01.574Z,38.23
2019-06-01T11:26:03.760Z,36.75
2019-06-01T11:31:05.664Z,37.09
2019-06-01T11:36:07.561Z,36.66
2019-06-01T11:41:09.554Z,36.07
2019-06-01T11:46:12.051Z,38.01
2019-06-01T11:51:14.049Z,37.22
2019-06-01T11:56:15.953Z,38.72
2019-06-01T12:01:18.420Z,37.36
2019-06-01T12:06:20.244Z,37.12
2019-06-01T12:11:22.242Z,35.91
2019-06-01T12:16:24.362Z,36.70
2019-06-01T12:21:26.311Z,36.31
2019-06-01T12:26:28.274Z,38.48
2019-06-01T12:31:30.412Z,37.67
2019-06-01T12:36:32.316Z,37.04
2019-06-01T12:41:34.250Z,36.66
2019-06-01T12:46:37.048Z,36.22
2019-06-01T12:51:40.504Z,36.67
2019-06-01T12:56:42.897Z,37.36
2019-06-01T13:01:45.272Z,36.75
2019-06-01T13:06:51.060Z,36.56
2019-06-01T13:11:51.506Z,36.43
2019-06-01T13:17:06.042Z,35.34
2019-06-01T13:21:56.983Z,35.32
2019-06-01T13:26:58.853Z,32.51
2019-06-01T13:32:00.786Z,36.08
2019-06-01T13:37:02.618Z,33.82
2019-06-01T13:42:04.740Z,33.98
2019-06-01T13:47:06.647Z,34.31
2019-06-01T13:52:08.759Z,34.99
2019-06-01T13:57:10.794Z,34.87
2019-06-01T14:02:12.733Z,34.52
2019-06-01T14:07:14.665Z,35.21
2019-06-01T14:12:19.318Z,35.81
2019-06-01T14:17:21.225Z,36.85
2019-06-01T14:22:23.160Z,36.10
2019-06-01T14:27:24.999Z,36.58
2019-06-01T14:32:28.196Z,36.18
2019-06-01T14:37:30.317Z,36.48
2019-06-01T14:42:32.122Z,34.36
2019-06-01T14:47:34.051Z,36.59
2019-06-01T14:52:35.967Z,40.66
2019-06-01T14:57:38.099Z,42.98
2019-06-01T15:02:40.346Z,44.00
2019-06-01T15:07:42.925Z,44.71
2019-06-01T15:12:44.824Z,45.68
2019-06-01T15:17:46.640Z,45.30
2019-06-01T15:22:49.931Z,45.18
2019-06-01T15:27:52.693Z,46.83
2019-06-01T15:32:56.112Z,45.72
2019-06-01T15:38:02.069Z,46.37
2019-06-01T15:43:03.078Z,46.04
2019-06-01T15:48:05.075Z,47.20
2019-06-01T15:53:07.059Z,47.00
2019-06-01T15:58:09.144Z,47.20
2019-06-01T16:03:12.813Z,46.87
2019-06-01T16:08:15.151Z,46.87
2019-06-01T16:13:17.202Z,47.99
2019-06-01T16:18:19.209Z,47.27
2019-06-01T16:23:21.055Z,47.02
2019-06-01T16:28:23.228Z,48.42
2019-06-01T16:33:25.188Z,49.91
2019-06-01T16:38:28.409Z,48.92
2019-06-01T16:43:31.596Z,48.82
2019-06-01T16:48:33.653Z,48.90
2019-06-01T16:53:35.619Z,51.21
2019-06-01T16:58:37.547Z,50.51
2019-06-01T17:03:39.812Z,51.20
2019-06-01T17:08:41.706Z,49.35
2019-06-01T17:13:43.541Z,49.17
2019-06-01T17:18:45.618Z,50.79
2019-06-01T17:23:48.504Z,50.12
2019-06-01T17:28:50.741Z,50.29
2019-06-01T17:33:53.023Z,51.25
2019-06-01T17:38:55.756Z,51.07
2019-06-01T17:43:57.726Z,51.05
2019-06-01T17:49:00.029Z,50.75
2019-06-01T17:54:02.641Z,51.59
2019-06-01T17:59:07.457Z,51.79
2019-06-01T18:04:10.064Z,52.86
2019-06-01T18:09:12.357Z,53.61
2019-06-01T18:14:14.746Z,53.47
2019-06-01T18:19:16.761Z,53.95
2019-06-01T18:24:19.998Z,55.12
2019-06-01T18:29:22.196Z,55.75
2019-06-01T18:34:24.005Z,55.11
2019-06-01T18:39:25.897Z,54.86
2019-06-01T18:44:27.989Z,55.20
2019-06-01T18:49:30.052Z,56.39
2019-06-01T18:54:32.155Z,57.88
2019-06-01T18:59:34.241Z,57.91
2019-06-01T19:04:36.160Z,59.27
2019-06-01T19:09:38.183Z,59.10
2019-06-01T19:14:40.267Z,59.46
2019-06-01T19:19:42.248Z,59.46
2019-06-01T19:24:44.374Z,58.64
2019-06-01T19:29:46.581Z,58.99
2019-06-01T19:34:48.588Z,59.63
2019-06-01T19:39:52.448Z,59.41
2019-06-01T19:44:54.616Z,59.96
2019-06-01T19:49:58.317Z,60.64
2019-06-01T19:55:00.752Z,60.67
2019-06-01T20:00:05.724Z,60.68
2019-06-01T20:05:07.943Z,60.45
2019-06-01T20:10:10.185Z,60.48
2019-06-01T20:15:13.317Z,60.88
2019-06-01T20:20:19.333Z,61.02
2019-06-01T20:25:21.820Z,61.68
2019-06-01T20:30:23.817Z,62.46
2019-06-01T20:35:25.692Z,62.43
2019-06-01T20:40:27.589Z,63.21
2019-06-01T20:45:29.456Z,63.43
2019-06-01T20:50:31.416Z,63.64
2019-06-01T20:55:34.661Z,63.00
2019-06-01T21:00:36.745Z,63.35
2019-06-01T21:05:39.292Z,62.94
2019-06-01T21:10:41.269Z,63.21
2019-06-01T21:15:43.400Z,65.12
2019-06-01T21:20:47.119Z,65.56
2019-06-01T21:25:49.172Z,65.95
2019-06-01T21:30:51.163Z,65.37
2019-06-01T21:35:53.239Z,66.12
2019-06-01T21:40:55.280Z,66.34
2019-06-01T21:45:57.941Z,66.03
2019-06-01T21:51:01.837Z,66.03
2019-06-01T21:56:04.327Z,66.44
2019-06-01T22:01:06.510Z,65.88
2019-06-01T22:06:08.662Z,65.95
2019-06-01T22:11:10.774Z,66.11
2019-06-01T22:16:12.983Z,66.02
2019-06-01T22:21:14.936Z,67.55
2019-06-01T22:26:17.886Z,67.94
2019-06-01T22:31:22.051Z,67.82
2019-06-01T22:36:25.167Z,68.30
2019-06-01T22:41:28.029Z,68.41
2019-06-01T22:46:30.222Z,68.46
2019-06-01T22:51:33.361Z,67.77
2019-06-01T22:56:35.341Z,67.53
2019-06-01T23:01:37.184Z,68.19
2019-06-01T23:06:40.159Z,68.64
2019-06-01T23:11:42.040Z,69.31
2019-06-01T23:16:43.928Z,69.16
2019-06-01T23:21:45.766Z,69.64
2019-06-01T23:26:47.588Z,70.77
2019-06-01T23:31:49.400Z,69.98
2019-06-01T23:36:51.292Z,69.82
2019-06-01T23:41:53.159Z,74.18
2019-06-01T23:46:55.060Z,74.87
2019-06-01T23:51:56.862Z,73.73
2019-06-01T23:56:58.735Z,71.56
